sensor_id;sensor_type;location;lat;lon;timestamp;pressure;altitude;pressure_sealevel;temperature;humidity
44531;BME280;30240;47.418;0.700;2023-04-26T00:02:18;100451.75170898438;;;10.01;79.81
44531;BME280;30240;47.418;0.700;2023-04-26T00:04:44;100455.78002929688;;;10.05;79.78
44531;BME280;30240;47.418;0.700;2023-04-26T00:07:08;100455.78002929688;;;10.05;79.78
44531;BME280;30240;47.418;0.700;2023-04-26T00:09:33;100452.5146484375;;;9.99;79.76
44531;BME280;30240;47.418;0.700;2023-04-26T00:11:59;100444.37255859375;;;10.02;79.98
44531;BME280;30240;47.418;0.700;2023-04-26T00:14:24;100443.34106445312;;;10.02;80.09
44531;BME280;30240;47.418;0.700;2023-04-26T00:16:49;100442.7734375;;;9.99;80.2
44531;BME280;30240;47.418;0.700;2023-04-26T00:19:13;100442.7734375;;;9.99;80.2
44531;BME280;30240;47.418;0.700;2023-04-26T00:21:39;100437.24365234375;;;9.92;80.26
44531;BME280;30240;47.418;0.700;2023-04-26T00:24:04;100442.51708984375;;;10.03;80.25
44531;BME280;30240;47.418;0.700;2023-04-26T00:26:29;100445.703125;;;9.99;80.14
44531;BME280;30240;47.418;0.700;2023-04-26T00:28:54;100437.9638671875;;;10.06;80.12
44531;BME280;30240;47.418;0.700;2023-04-26T00:31:18;100437.9638671875;;;10.06;80.12
44531;BME280;30240;47.418;0.700;2023-04-26T00:33:44;100435.888671875;;;9.92;80.14
44531;BME280;30240;47.418;0.700;2023-04-26T00:36:09;100421.7529296875;;;9.91;80.26
44531;BME280;30240;47.418;0.700;2023-04-26T00:38:34;100414.84375;;;9.88;80.24
44531;BME280;30240;47.418;0.700;2023-04-26T00:40:58;100407.6416015625;;;9.82;80.18
44531;BME280;30240;47.418;0.700;2023-04-26T00:43:23;100407.6416015625;;;9.82;80.18
44531;BME280;30240;47.418;0.700;2023-04-26T00:45:49;100404.736328125;;;9.8;80.42
44531;BME280;30240;47.418;0.700;2023-04-26T00:48:14;100397.03369140625;;;9.78;80.53
44531;BME280;30240;47.418;0.700;2023-04-26T00:50:39;100392.48657226562;;;9.75;80.41
44531;BME280;30240;47.418;0.700;2023-04-26T00:53:03;100398.07739257812;;;9.74;80.3
44531;BME280;30240;47.418;0.700;2023-04-26T00:55:29;100398.07739257812;;;9.74;80.3
44531;BME280;30240;47.418;0.700;2023-04-26T00:57:53;100400.03662109375;;;9.8;80.29
44531;BME280;30240;47.418;0.700;2023-04-26T01:00:18;100405.52978515625;;;9.71;80.31
44531;BME280;30240;47.418;0.700;2023-04-26T01:02:44;100412.34130859375;;;9.74;80.31
44531;BME280;30240;47.418;0.700;2023-04-26T01:05:09;100404.77905273438;;;9.77;80.52
44531;BME280;30240;47.418;0.700;2023-04-26T01:07:34;100404.77905273438;;;9.77;80.52
44531;BME280;30240;47.418;0.700;2023-04-26T01:09:58;100407.41577148438;;;9.71;80.53
44531;BME280;30240;47.418;0.700;2023-04-26T01:12:24;100401.45263671875;;;9.73;80.46
44531;BME280;30240;47.418;0.700;2023-04-26T01:14:48;100395.0927734375;;;9.77;80.5
44531;BME280;30240;47.418;0.700;2023-04-26T01:17:13;100385.95581054688;;;9.78;80.53
44531;BME280;30240;47.418;0.700;2023-04-26T01:19:47;100385.95581054688;;;9.78;80.53
44531;BME280;30240;47.418;0.700;2023-04-26T01:22:04;100389.15405273438;;;9.77;80.6
44531;BME280;30240;47.418;0.700;2023-04-26T01:24:29;100390.4052734375;;;9.74;80.67
44531;BME280;30240;47.418;0.700;2023-04-26T01:26:53;100394.78149414062;;;9.71;80.79
44531;BME280;30240;47.418;0.700;2023-04-26T01:29:20;100393.12744140625;;;9.63;80.8
44531;BME280;30240;47.418;0.700;2023-04-26T01:31:44;100393.12744140625;;;9.63;80.8
44531;BME280;30240;47.418;0.700;2023-04-26T01:34:09;100386.376953125;;;9.67;80.92
44531;BME280;30240;47.418;0.700;2023-04-26T01:36:34;100384.24072265625;;;9.64;81.03
44531;BME280;30240;47.418;0.700;2023-04-26T01:38:58;100391.05224609375;;;9.66;81.04
44531;BME280;30240;47.418;0.700;2023-04-26T01:41:23;100394.140625;;;9.66;81.04
44531;BME280;30240;47.418;0.700;2023-04-26T01:43:49;100388.6474609375;;;9.64;81.03
44531;BME280;30240;47.418;0.700;2023-04-26T01:46:14;100388.6474609375;;;9.64;81.03
44531;BME280;30240;47.418;0.700;2023-04-26T01:48:39;100387.7685546875;;;9.67;80.95
44531;BME280;30240;47.418;0.700;2023-04-26T01:51:04;100389.34326171875;;;9.54;81.09
44531;BME280;30240;47.418;0.700;2023-04-26T01:53:28;100389.453125;;;9.56;80.93
44531;BME280;30240;47.418;0.700;2023-04-26T01:55:53;100388.55590820312;;;9.66;80.96
44531;BME280;30240;47.418;0.700;2023-04-26T01:58:18;100388.55590820312;;;9.66;80.96
44531;BME280;30240;47.418;0.700;2023-04-26T02:00:43;100380.2978515625;;;9.64;81.02
44531;BME280;30240;47.418;0.700;2023-04-26T02:03:08;100367.21801757812;;;9.58;81.16
44531;BME280;30240;47.418;0.700;2023-04-26T02:05:33;100371.12426757812;;;9.56;81.05
44531;BME280;30240;47.418;0.700;2023-04-26T02:07:59;100374.267578125;;;9.58;81.13
44531;BME280;30240;47.418;0.700;2023-04-26T02:10:23;100374.267578125;;;9.58;81.13
44531;BME280;30240;47.418;0.700;2023-04-26T02:12:48;100377.18505859375;;;9.51;81.09
44531;BME280;30240;47.418;0.700;2023-04-26T02:15:13;100372.7783203125;;;9.58;81.12
44531;BME280;30240;47.418;0.700;2023-04-26T02:17:39;100365.68603515625;;;9.6;81.05
44531;BME280;30240;47.418;0.700;2023-04-26T02:20:04;100360.95581054688;;;9.46;81.13
44531;BME280;30240;47.418;0.700;2023-04-26T02:22:29;100360.95581054688;;;9.46;81.13
44531;BME280;30240;47.418;0.700;2023-04-26T02:24:54;100362.27416992188;;;9.51;81.16
44531;BME280;30240;47.418;0.700;2023-04-26T02:27:19;100356.93969726562;;;9.49;81.21
44531;BME280;30240;47.418;0.700;2023-04-26T02:29:43;100354.38842773438;;;9.51;81.28
44531;BME280;30240;47.418;0.700;2023-04-26T02:32:09;100354.18701171875;;;9.54;81.09
44531;BME280;30240;47.418;0.700;2023-04-26T02:34:34;100354.18701171875;;;9.54;81.09
44531;BME280;30240;47.418;0.700;2023-04-26T02:36:58;100354.59594726562;;;9.51;81.01
44531;BME280;30240;47.418;0.700;2023-04-26T02:39:23;100346.6552734375;;;9.51;81.12
44531;BME280;30240;47.418;0.700;2023-04-26T02:41:48;100345.76416015625;;;9.53;81.15
44531;BME280;30240;47.418;0.700;2023-04-26T02:44:14;100342.73681640625;;;9.5;81.29
44531;BME280;30240;47.418;0.700;2023-04-26T02:46:38;100342.73681640625;;;9.5;81.29
44531;BME280;30240;47.418;0.700;2023-04-26T02:49:03;100338.75732421875;;;9.51;81.2
44531;BME280;30240;47.418;0.700;2023-04-26T02:51:28;100341.90063476562;;;9.46;81.18
44531;BME280;30240;47.418;0.700;2023-04-26T02:53:53;100342.32177734375;;;9.54;81.08
44531;BME280;30240;47.418;0.700;2023-04-26T02:56:18;100336.48681640625;;;9.43;81.26
44531;BME280;30240;47.418;0.700;2023-04-26T02:58:44;100336.48681640625;;;9.43;81.26
44531;BME280;30240;47.418;0.700;2023-04-26T03:01:08;100339.9658203125;;;9.46;81.32
44531;BME280;30240;47.418;0.700;2023-04-26T03:03:34;100333.8134765625;;;9.53;81.19
44531;BME280;30240;47.418;0.700;2023-04-26T03:05:58;100337.60986328125;;;9.61;81.06
44531;BME280;30240;47.418;0.700;2023-04-26T03:08:23;100336.46850585938;;;9.5;81.07
44531;BME280;30240;47.418;0.700;2023-04-26T03:10:48;100328.515625;;;9.39;81.28
44531;BME280;30240;47.418;0.700;2023-04-26T03:13:13;100328.515625;;;9.39;81.28
44531;BME280;30240;47.418;0.700;2023-04-26T03:15:42;100319.67163085938;;;9.4;81.35
44531;BME280;30240;47.418;0.700;2023-04-26T03:18:04;100318.84155273438;;;9.39;81.35
44531;BME280;30240;47.418;0.700;2023-04-26T03:20:29;100322.1435546875;;;9.38;81.42
44531;BME280;30240;47.418;0.700;2023-04-26T03:22:54;100312.68920898438;;;9.4;81.38
44531;BME280;30240;47.418;0.700;2023-04-26T03:25:18;100312.68920898438;;;9.4;81.38
44531;BME280;30240;47.418;0.700;2023-04-26T03:27:44;100301.08642578125;;;9.38;81.46
44531;BME280;30240;47.418;0.700;2023-04-26T03:30:09;100299.35302734375;;;9.35;81.65
44531;BME280;30240;47.418;0.700;2023-04-26T03:32:33;100303.564453125;;;9.35;81.58
44531;BME280;30240;47.418;0.700;2023-04-26T03:34:59;100296.484375;;;9.38;81.67
44531;BME280;30240;47.418;0.700;2023-04-26T03:37:23;100296.484375;;;9.38;81.67
44531;BME280;30240;47.418;0.700;2023-04-26T03:39:49;100300.341796875;;;9.36;81.6
44531;BME280;30240;47.418;0.700;2023-04-26T03:42:13;100299.35913085938;;;9.42;81.69
44531;BME280;30240;47.418;0.700;2023-04-26T03:44:38;100297.74169921875;;;9.36;81.79
44531;BME280;30240;47.418;0.700;2023-04-26T03:47:03;100304.296875;;;9.29;81.77
44531;BME280;30240;47.418;0.700;2023-04-26T03:49:28;100304.296875;;;9.29;81.77
44531;BME280;30240;47.418;0.700;2023-04-26T03:51:53;100302.490234375;;;9.28;81.91
44531;BME280;30240;47.418;0.700;2023-04-26T03:54:18;100297.998046875;;;9.32;81.85
44531;BME280;30240;47.418;0.700;2023-04-26T03:56:43;100295.361328125;;;9.4;81.8
44531;BME280;30240;47.418;0.700;2023-04-26T03:59:09;100294.970703125;;;9.39;81.84
44531;BME280;30240;47.418;0.700;2023-04-26T04:01:34;100294.970703125;;;9.39;81.84
44531;BME280;30240;47.418;0.700;2023-04-26T04:03:58;100293.64013671875;;;9.35;81.81
44531;BME280;30240;47.418;0.700;2023-04-26T04:06:24;100295.458984375;;;9.25;82.01
44531;BME280;30240;47.418;0.700;2023-04-26T04:08:49;100295.29418945312;;;9.21;82.14
44531;BME280;30240;47.418;0.700;2023-04-26T04:11:13;100297.29614257812;;;9.19;82.29
44531;BME280;30240;47.418;0.700;2023-04-26T04:13:38;100297.29614257812;;;9.19;82.29
44531;BME280;30240;47.418;0.700;2023-04-26T04:16:04;100291.81518554688;;;9.16;82.25
44531;BME280;30240;47.418;0.700;2023-04-26T04:18:28;100285.65673828125;;;9.15;82.42
44531;BME280;30240;47.418;0.700;2023-04-26T04:20:53;100277.294921875;;;9.11;82.47
44531;BME280;30240;47.418;0.700;2023-04-26T04:23:18;100290.6494140625;;;9.08;82.56
44531;BME280;30240;47.418;0.700;2023-04-26T04:25:43;100290.6494140625;;;9.08;82.56
44531;BME280;30240;47.418;0.700;2023-04-26T04:28:08;100290.53955078125;;;9.05;82.56
44531;BME280;30240;47.418;0.700;2023-04-26T04:30:33;100297.2900390625;;;9.16;82.44
44531;BME280;30240;47.418;0.700;2023-04-26T04:32:58;100296.12426757812;;;9.14;82.51
44531;BME280;30240;47.418;0.700;2023-04-26T04:35:24;100288.64135742188;;;9.03;82.56
44531;BME280;30240;47.418;0.700;2023-04-26T04:37:48;100288.64135742188;;;9.03;82.56
44531;BME280;30240;47.418;0.700;2023-04-26T04:40:14;100292.04711914062;;;9.03;82.58
44531;BME280;30240;47.418;0.700;2023-04-26T04:42:39;100291.41235351562;;;9.08;82.46
44531;BME280;30240;47.418;0.700;2023-04-26T04:45:04;100291.95556640625;;;9.08;82.59
44531;BME280;30240;47.418;0.700;2023-04-26T04:47:28;100288.73291015625;;;8.94;82.74
44531;BME280;30240;47.418;0.700;2023-04-26T04:49:53;100289.15405273438;;;9.05;82.67
44531;BME280;30240;47.418;0.700;2023-04-26T04:52:19;100289.15405273438;;;9.05;82.67
44531;BME280;30240;47.418;0.700;2023-04-26T04:54:44;100287.78076171875;;;9.05;82.77
44531;BME280;30240;47.418;0.700;2023-04-26T04:57:08;100284.521484375;;;8.92;82.72
44531;BME280;30240;47.418;0.700;2023-04-26T04:59:33;100292.21801757812;;;8.96;82.95
44531;BME280;30240;47.418;0.700;2023-04-26T05:01:58;100298.06518554688;;;9.0;82.69
44531;BME280;30240;47.418;0.700;2023-04-26T05:04:24;100298.06518554688;;;9.0;82.69
44531;BME280;30240;47.418;0.700;2023-04-26T05:06:48;100302.06298828125;;;9.03;82.73
44531;BME280;30240;47.418;0.700;2023-04-26T05:09:13;100300.36010742188;;;9.15;82.65
44531;BME280;30240;47.418;0.700;2023-04-26T05:11:38;100298.85864257812;;;9.08;82.47
44531;BME280;30240;47.418;0.700;2023-04-26T05:14:03;100303.35693359375;;;9.05;82.61
44531;BME280;30240;47.418;0.700;2023-04-26T05:16:28;100303.35693359375;;;9.05;82.61
44531;BME280;30240;47.418;0.700;2023-04-26T05:18:53;100308.89282226562;;;9.16;82.49
44531;BME280;30240;47.418;0.700;2023-04-26T05:21:18;100307.45849609375;;;9.12;82.43
44531;BME280;30240;47.418;0.700;2023-04-26T05:23:43;100307.75146484375;;;9.07;82.5
44531;BME280;30240;47.418;0.700;2023-04-26T05:26:13;100308.8623046875;;;9.1;82.54
44531;BME280;30240;47.418;0.700;2023-04-26T05:28:34;100308.8623046875;;;9.1;82.54
44531;BME280;30240;47.418;0.700;2023-04-26T05:30:59;100316.29638671875;;;9.1;82.64
44531;BME280;30240;47.418;0.700;2023-04-26T05:33:23;100309.9365234375;;;9.22;82.49
44531;BME280;30240;47.418;0.700;2023-04-26T05:35:48;100315.39306640625;;;9.26;82.35
44531;BME280;30240;47.418;0.700;2023-04-26T05:38:14;100315.5029296875;;;9.24;82.28
44531;BME280;30240;47.418;0.700;2023-04-26T05:40:38;100315.5029296875;;;9.24;82.28
44531;BME280;30240;47.418;0.700;2023-04-26T05:43:03;100316.00952148438;;;9.29;82.19
44531;BME280;30240;47.418;0.700;2023-04-26T05:45:28;100327.40478515625;;;9.11;82.55
44531;BME280;30240;47.418;0.700;2023-04-26T05:47:54;100325.40893554688;;;9.15;82.53
44531;BME280;30240;47.418;0.700;2023-04-26T05:50:18;100327.98461914062;;;9.21;82.41
44531;BME280;30240;47.418;0.700;2023-04-26T05:52:43;100327.98461914062;;;9.21;82.41
44531;BME280;30240;47.418;0.700;2023-04-26T05:55:09;100328.14331054688;;;9.25;82.39
44531;BME280;30240;47.418;0.700;2023-04-26T05:57:33;100329.5654296875;;;9.25;82.29
44531;BME280;30240;47.418;0.700;2023-04-26T05:59:58;100329.4677734375;;;9.35;82.19
44531;BME280;30240;47.418;0.700;2023-04-26T06:02:24;100322.021484375;;;9.47;82.18
44531;BME280;30240;47.418;0.700;2023-04-26T06:04:48;100322.021484375;;;9.47;82.18
44531;BME280;30240;47.418;0.700;2023-04-26T06:07:14;100317.82836914062;;;9.58;81.96
44531;BME280;30240;47.418;0.700;2023-04-26T06:09:38;100314.1845703125;;;9.53;81.96
44531;BME280;30240;47.418;0.700;2023-04-26T06:12:04;100320.56274414062;;;9.5;82.14
44531;BME280;30240;47.418;0.700;2023-04-26T06:14:28;100318.35327148438;;;9.71;81.86
44531;BME280;30240;47.418;0.700;2023-04-26T06:16:57;100313.8916015625;;;9.61;81.92
44531;BME280;30240;47.418;0.700;2023-04-26T06:19:19;100313.8916015625;;;9.61;81.92
44531;BME280;30240;47.418;0.700;2023-04-26T06:21:44;100316.12548828125;;;9.88;81.71
44531;BME280;30240;47.418;0.700;2023-04-26T06:24:09;100316.1376953125;;;9.87;81.27
44531;BME280;30240;47.418;0.700;2023-04-26T06:26:33;100306.94580078125;;;9.99;81.34
44531;BME280;30240;47.418;0.700;2023-04-26T06:28:58;100298.93798828125;;;9.81;81.5
44531;BME280;30240;47.418;0.700;2023-04-26T06:31:24;100298.93798828125;;;9.81;81.5
44531;BME280;30240;47.418;0.700;2023-04-26T06:33:48;100299.24926757812;;;9.91;81.42
44531;BME280;30240;47.418;0.700;2023-04-26T06:36:14;100296.78955078125;;;9.95;81.26
44531;BME280;30240;47.418;0.700;2023-04-26T06:38:39;100301.84326171875;;;10.09;81.07
44531;BME280;30240;47.418;0.700;2023-04-26T06:41:03;100307.11059570312;;;10.13;80.54
44531;BME280;30240;47.418;0.700;2023-04-26T06:43:28;100307.11059570312;;;10.13;80.54
44531;BME280;30240;47.418;0.700;2023-04-26T06:45:54;100305.87768554688;;;10.33;80.58
44531;BME280;30240;47.418;0.700;2023-04-26T06:48:18;100302.1728515625;;;10.49;80.22
44531;BME280;30240;47.418;0.700;2023-04-26T06:50:43;100307.1044921875;;;10.54;80.07
44531;BME280;30240;47.418;0.700;2023-04-26T06:53:08;100306.28051757812;;;10.47;80.36
44531;BME280;30240;47.418;0.700;2023-04-26T06:55:33;100306.28051757812;;;10.47;80.36
44531;BME280;30240;47.418;0.700;2023-04-26T06:57:58;100307.79418945312;;;10.74;80.09
44531;BME280;30240;47.418;0.700;2023-04-26T07:00:24;100303.01513671875;;;10.81;80.42
44531;BME280;30240;47.418;0.700;2023-04-26T07:02:48;100298.07739257812;;;11.03;79.86
44531;BME280;30240;47.418;0.700;2023-04-26T07:05:14;100298.73657226562;;;10.99;79.58
44531;BME280;30240;47.418;0.700;2023-04-26T07:07:38;100298.73657226562;;;10.99;79.58
44531;BME280;30240;47.418;0.700;2023-04-26T07:10:04;100296.71630859375;;;10.51;80.36
44531;BME280;30240;47.418;0.700;2023-04-26T07:12:28;100298.91357421875;;;10.78;80.27
44531;BME280;30240;47.418;0.700;2023-04-26T07:14:53;100299.54833984375;;;10.75;80.12
44531;BME280;30240;47.418;0.700;2023-04-26T07:17:18;100299.96948242188;;;10.81;79.74
44531;BME280;30240;47.418;0.700;2023-04-26T07:19:44;100299.96948242188;;;10.81;79.74
44531;BME280;30240;47.418;0.700;2023-04-26T07:22:09;100297.39990234375;;;11.17;79.59
44531;BME280;30240;47.418;0.700;2023-04-26T07:24:33;100302.734375;;;11.23;78.98
44531;BME280;30240;47.418;0.700;2023-04-26T07:26:59;100298.12622070312;;;11.42;79.17
44531;BME280;30240;47.418;0.700;2023-04-26T07:29:23;100297.18627929688;;;11.08;79.29
44531;BME280;30240;47.418;0.700;2023-04-26T07:31:49;100297.18627929688;;;11.08;79.29
44531;BME280;30240;47.418;0.700;2023-04-26T07:34:14;100294.00634765625;;;11.08;79.51
44531;BME280;30240;47.418;0.700;2023-04-26T07:36:38;100296.0205078125;;;11.13;79.04
44531;BME280;30240;47.418;0.700;2023-04-26T07:39:03;100294.78149414062;;;11.12;79.61
44531;BME280;30240;47.418;0.700;2023-04-26T07:41:29;100289.95361328125;;;10.99;79.4
44531;BME280;30240;47.418;0.700;2023-04-26T07:43:53;100289.95361328125;;;10.99;79.4
44531;BME280;30240;47.418;0.700;2023-04-26T07:46:18;100288.43994140625;;;11.34;79.11
44531;BME280;30240;47.418;0.700;2023-04-26T07:48:43;100283.69750976562;;;11.5;78.68
44531;BME280;30240;47.418;0.700;2023-04-26T07:51:10;100283.47778320312;;;11.58;78.41
44531;BME280;30240;47.418;0.700;2023-04-26T07:53:33;100289.41650390625;;;12.48;77.51
44531;BME280;30240;47.418;0.700;2023-04-26T07:55:59;100274.49340820312;;;12.25;76.5
44531;BME280;30240;47.418;0.700;2023-04-26T07:58:23;100274.49340820312;;;12.25;76.5
44531;BME280;30240;47.418;0.700;2023-04-26T08:00:49;100282.421875;;;12.25;76.93
44531;BME280;30240;47.418;0.700;2023-04-26T08:03:14;100287.646484375;;;12.35;76.3
44531;BME280;30240;47.418;0.700;2023-04-26T08:05:38;100287.53051757812;;;12.41;76.55
44531;BME280;30240;47.418;0.700;2023-04-26T08:08:04;100283.8623046875;;;12.68;76.03
44531;BME280;30240;47.418;0.700;2023-04-26T08:10:29;100283.8623046875;;;12.68;76.03
44531;BME280;30240;47.418;0.700;2023-04-26T08:12:53;100283.42895507812;;;12.25;76.34
44531;BME280;30240;47.418;0.700;2023-04-26T08:15:18;100285.35766601562;;;12.28;76.81
44531;BME280;30240;47.418;0.700;2023-04-26T08:17:43;100288.76342773438;;;12.44;76.84
44531;BME280;30240;47.418;0.700;2023-04-26T08:20:09;100289.75830078125;;;12.8;75.48
44531;BME280;30240;47.418;0.700;2023-04-26T08:22:33;100289.75830078125;;;12.8;75.48
44531;BME280;30240;47.418;0.700;2023-04-26T08:24:58;100280.2001953125;;;13.19;74.85
44531;BME280;30240;47.418;0.700;2023-04-26T08:27:23;100279.43725585938;;;12.48;76.59
44531;BME280;30240;47.418;0.700;2023-04-26T08:29:48;100269.67163085938;;;12.51;76.21
44531;BME280;30240;47.418;0.700;2023-04-26T08:32:13;100262.44506835938;;;12.52;76.44
44531;BME280;30240;47.418;0.700;2023-04-26T08:34:38;100262.44506835938;;;12.52;76.44
44531;BME280;30240;47.418;0.700;2023-04-26T08:37:05;100268.19458007812;;;13.74;74.14
44531;BME280;30240;47.418;0.700;2023-04-26T08:39:28;100265.89965820312;;;14.17;72.43
44531;BME280;30240;47.418;0.700;2023-04-26T08:41:54;100264.75219726562;;;13.46;72.98
44531;BME280;30240;47.418;0.700;2023-04-26T08:44:21;100262.78076171875;;;13.38;73.27
44531;BME280;30240;47.418;0.700;2023-04-26T08:46:50;100262.78076171875;;;13.38;73.27
44531;BME280;30240;47.418;0.700;2023-04-26T08:46:53;100262.78076171875;;;13.38;73.27
44531;BME280;30240;47.418;0.700;2023-04-26T08:49:12;100257.67211914062;;;13.69;73.12
44531;BME280;30240;47.418;0.700;2023-04-26T08:51:35;100252.72827148438;;;13.5;73.75
44531;BME280;30240;47.418;0.700;2023-04-26T08:53:59;100259.29565429688;;;13.31;73.65
44531;BME280;30240;47.418;0.700;2023-04-26T08:56:24;100258.544921875;;;13.88;73.38
44531;BME280;30240;47.418;0.700;2023-04-26T08:58:49;100258.544921875;;;13.88;73.38
44531;BME280;30240;47.418;0.700;2023-04-26T09:01:14;100257.69653320312;;;13.94;72.89
44531;BME280;30240;47.418;0.700;2023-04-26T09:03:39;100255.49926757812;;;14.53;71.93
44531;BME280;30240;47.418;0.700;2023-04-26T09:06:05;100250.37231445312;;;13.8;73.23
44531;BME280;30240;47.418;0.700;2023-04-26T09:08:29;100246.42333984375;;;14.17;72.48
44531;BME280;30240;47.418;0.700;2023-04-26T09:10:53;100246.42333984375;;;14.17;72.48
44531;BME280;30240;47.418;0.700;2023-04-26T09:13:18;100249.77416992188;;;14.89;70.64
44531;BME280;30240;47.418;0.700;2023-04-26T09:15:46;100258.06274414062;;;14.49;71.79
44531;BME280;30240;47.418;0.700;2023-04-26T09:18:16;100257.31201171875;;;15.16;70.72
44531;BME280;30240;47.418;0.700;2023-04-26T09:20:33;100255.419921875;;;15.44;69.27
44531;BME280;30240;47.418;0.700;2023-04-26T09:23:03;100258.64868164062;;;14.89;70.47
44531;BME280;30240;47.418;0.700;2023-04-26T09:25:28;100258.64868164062;;;14.89;70.47
44531;BME280;30240;47.418;0.700;2023-04-26T09:27:48;100261.92016601562;;;15.82;68.98
44531;BME280;30240;47.418;0.700;2023-04-26T09:30:15;100263.56201171875;;;15.03;70.13
44531;BME280;30240;47.418;0.700;2023-04-26T09:32:43;100255.26733398438;;;14.84;68.83
44531;BME280;30240;47.418;0.700;2023-04-26T09:35:04;100266.44287109375;;;15.22;68.84
44531;BME280;30240;47.418;0.700;2023-04-26T09:37:29;100266.44287109375;;;15.22;68.84
44531;BME280;30240;47.418;0.700;2023-04-26T09:39:54;100271.84448242188;;;15.61;67.83
44531;BME280;30240;47.418;0.700;2023-04-26T09:42:18;100273.486328125;;;14.98;70.23
44531;BME280;30240;47.418;0.700;2023-04-26T09:44:43;100270.7275390625;;;14.61;70.32
44531;BME280;30240;47.418;0.700;2023-04-26T09:47:10;100275.15869140625;;;15.18;69.63
44531;BME280;30240;47.418;0.700;2023-04-26T09:49:44;100275.15869140625;;;15.18;69.63
44531;BME280;30240;47.418;0.700;2023-04-26T09:51:59;100275.81176757812;;;15.57;67.63
44531;BME280;30240;47.418;0.700;2023-04-26T09:54:37;100275.06103515625;;;15.64;68.27
44531;BME280;30240;47.418;0.700;2023-04-26T09:57:01;100264.34326171875;;;15.77;68.28
44531;BME280;30240;47.418;0.700;2023-04-26T09:59:13;100270.3125;;;17.06;64.13
44531;BME280;30240;47.418;0.700;2023-04-26T10:01:38;100270.3125;;;17.06;64.13
44531;BME280;30240;47.418;0.700;2023-04-26T10:04:05;100273.66333007812;;;17.34;65.09
44531;BME280;30240;47.418;0.700;2023-04-26T10:06:29;100264.51416015625;;;16.64;66.31
44531;BME280;30240;47.418;0.700;2023-04-26T10:08:54;100265.0146484375;;;16.52;66.79
44531;BME280;30240;47.418;0.700;2023-04-26T10:11:19;100268.1884765625;;;17.2;66.22
44531;BME280;30240;47.418;0.700;2023-04-26T10:13:44;100268.1884765625;;;17.2;66.22
44531;BME280;30240;47.418;0.700;2023-04-26T10:16:08;100264.42260742188;;;16.55;67.16
44531;BME280;30240;47.418;0.700;2023-04-26T10:18:34;100264.59350585938;;;16.51;66.56
44531;BME280;30240;47.418;0.700;2023-04-26T10:21:01;100264.61181640625;;;16.03;68.63
44531;BME280;30240;47.418;0.700;2023-04-26T10:23:24;100262.87231445312;;;15.77;69.34
44531;BME280;30240;47.418;0.700;2023-04-26T10:25:49;100262.87231445312;;;15.77;69.34
44531;BME280;30240;47.418;0.700;2023-04-26T10:28:14;100264.33715820312;;;16.5;68.15
44531;BME280;30240;47.418;0.700;2023-04-26T10:30:57;100265.54565429688;;;16.65;68.31
44531;BME280;30240;47.418;0.700;2023-04-26T10:33:11;100263.0615234375;;;16.12;69.19
44531;BME280;30240;47.418;0.700;2023-04-26T10:35:29;100266.03393554688;;;16.06;69.82
44531;BME280;30240;47.418;0.700;2023-04-26T10:38:09;100266.03393554688;;;16.06;69.82
44531;BME280;30240;47.418;0.700;2023-04-26T10:40:23;100263.7939453125;;;15.77;71.74
44531;BME280;30240;47.418;0.700;2023-04-26T10:42:44;100253.60717773438;;;16.51;70.29
44531;BME280;30240;47.418;0.700;2023-04-26T10:45:25;100253.82080078125;;;16.61;70.3
44531;BME280;30240;47.418;0.700;2023-04-26T10:47:34;100261.376953125;;;16.89;69.54
44531;BME280;30240;47.418;0.700;2023-04-26T10:50:01;100261.376953125;;;16.89;69.54
44531;BME280;30240;47.418;0.700;2023-04-26T10:52:24;100257.861328125;;;16.34;71.5
44531;BME280;30240;47.418;0.700;2023-04-26T10:54:51;100252.87475585938;;;15.81;72.91
44531;BME280;30240;47.418;0.700;2023-04-26T10:57:14;100246.6552734375;;;15.49;74.34
44531;BME280;30240;47.418;0.700;2023-04-26T10:59:39;100251.01318359375;;;16.02;73.3
44531;BME280;30240;47.418;0.700;2023-04-26T11:02:04;100251.93481445312;;;15.71;74.04
44531;BME280;30240;47.418;0.700;2023-04-26T11:04:51;100251.93481445312;;;15.71;74.04
44531;BME280;30240;47.418;0.700;2023-04-26T11:06:54;100262.19482421875;;;15.34;74.98
44531;BME280;30240;47.418;0.700;2023-04-26T11:09:32;100252.83813476562;;;15.09;75.65
44531;BME280;30240;47.418;0.700;2023-04-26T11:11:51;100263.8427734375;;;15.01;76.11
44531;BME280;30240;47.418;0.700;2023-04-26T11:14:09;100261.7431640625;;;15.2;76.25
44531;BME280;30240;47.418;0.700;2023-04-26T11:16:34;100261.7431640625;;;15.2;76.25
44531;BME280;30240;47.418;0.700;2023-04-26T11:18:58;100269.10400390625;;;15.15;76.75
44531;BME280;30240;47.418;0.700;2023-04-26T11:21:24;100267.578125;;;15.08;76.22
44531;BME280;30240;47.418;0.700;2023-04-26T11:23:53;100266.2353515625;;;14.56;77.95
44531;BME280;30240;47.418;0.700;2023-04-26T11:26:14;100255.87768554688;;;14.74;77.53